sensor_id;sensor_type;location;lat;lon;timestamp;pressure;altitude;pressure_sealevel;temperature;humidity
64967;BME280;51710;38.732;-121.358;2022-10-31T00:01:20;101074.69;;;24.86;29.59
64967;BME280;51710;38.732;-121.358;2022-10-31T00:03:47;101079.94;;;24.88;29.70
64967;BME280;51710;38.732;-121.358;2022-10-31T00:06:15;101078.75;;;24.84;29.81
64967;BME280;51710;38.732;-121.358;2022-10-31T00:08:45;101080.28;;;24.80;30.22
64967;BME280;51710;38.732;-121.358;2022-10-31T00:11:11;101077.47;;;24.75;29.56
64967;BME280;51710;38.732;-121.358;2022-10-31T00:13:38;101071.28;;;24.68;29.77
64967;BME280;51710;38.732;-121.358;2022-10-31T00:16:05;101067.88;;;24.61;30.00
64967;BME280;51710;38.732;-121.358;2022-10-31T00:18:38;101063.63;;;24.53;30.34
64967;BME280;51710;38.732;-121.358;2022-10-31T00:21:05;101064.25;;;24.43;30.62
64967;BME280;51710;38.732;-121.358;2022-10-31T00:23:31;101069.00;;;24.36;30.73
64967;BME280;51710;38.732;-121.358;2022-10-31T00:26:02;101061.75;;;24.30;30.70
64967;BME280;51710;38.732;-121.358;2022-10-31T00:28:29;101065.44;;;24.24;30.67
64967;BME280;51710;38.732;-121.358;2022-10-31T00:31:03;101059.31;;;24.17;30.91
64967;BME280;51710;38.732;-121.358;2022-10-31T00:33:30;101053.16;;;24.10;30.98
64967;BME280;51710;38.732;-121.358;2022-10-31T00:35:56;101052.94;;;24.00;30.97
64967;BME280;51710;38.732;-121.358;2022-10-31T00:38:23;101055.13;;;23.92;31.37
64967;BME280;51710;38.732;-121.358;2022-10-31T00:40:49;101057.84;;;23.80;31.31
64967;BME280;51710;38.732;-121.358;2022-10-31T00:43:15;101058.44;;;23.71;31.44
64967;BME280;51710;38.732;-121.358;2022-10-31T00:45:42;101049.66;;;23.57;31.89
64967;BME280;51710;38.732;-121.358;2022-10-31T00:48:09;101050.94;;;23.43;31.74
64967;BME280;51710;38.732;-121.358;2022-10-31T00:50:36;101047.81;;;23.28;32.05
64967;BME280;51710;38.732;-121.358;2022-10-31T00:53:03;101041.72;;;23.14;32.09
64967;BME280;51710;38.732;-121.358;2022-10-31T00:55:29;101041.88;;;23.01;32.34
64967;BME280;51710;38.732;-121.358;2022-10-31T00:57:55;101034.16;;;22.87;32.77
64967;BME280;51710;38.732;-121.358;2022-10-31T01:00:22;101039.38;;;22.70;33.03
64967;BME280;51710;38.732;-121.358;2022-10-31T01:02:48;101042.53;;;22.56;32.93
64967;BME280;51710;38.732;-121.358;2022-10-31T01:05:15;101042.03;;;22.41;33.22
64967;BME280;51710;38.732;-121.358;2022-10-31T01:07:42;101050.19;;;22.22;33.56
64967;BME280;51710;38.732;-121.358;2022-10-31T01:10:10;101049.91;;;22.06;33.59
64967;BME280;51710;38.732;-121.358;2022-10-31T01:12:38;101056.13;;;21.88;33.47
64967;BME280;51710;38.732;-121.358;2022-10-31T01:15:06;101047.72;;;21.72;33.95
64967;BME280;51710;38.732;-121.358;2022-10-31T01:17:33;101057.00;;;21.58;34.01
64967;BME280;51710;38.732;-121.358;2022-10-31T01:19:59;101061.72;;;21.44;34.61
64967;BME280;51710;38.732;-121.358;2022-10-31T01:22:26;101064.94;;;21.28;35.07
64967;BME280;51710;38.732;-121.358;2022-10-31T01:24:52;101066.13;;;21.07;35.22
64967;BME280;51710;38.732;-121.358;2022-10-31T01:27:19;101076.38;;;20.86;35.30
64967;BME280;51710;38.732;-121.358;2022-10-31T01:29:45;101073.53;;;20.74;35.30
64967;BME280;51710;38.732;-121.358;2022-10-31T01:32:11;101073.53;;;20.68;35.72
64967;BME280;51710;38.732;-121.358;2022-10-31T01:34:38;101075.25;;;20.56;35.82
64967;BME280;51710;38.732;-121.358;2022-10-31T01:37:04;101075.75;;;20.40;35.89
64967;BME280;51710;38.732;-121.358;2022-10-31T01:39:30;101074.94;;;20.20;36.34
64967;BME280;51710;38.732;-121.358;2022-10-31T01:41:57;101068.09;;;19.97;36.76
64967;BME280;51710;38.732;-121.358;2022-10-31T01:47:53;101073.50;;;19.58;37.18
64967;BME280;51710;38.732;-121.358;2022-10-31T01:49:59;101070.75;;;19.39;37.49
64967;BME280;51710;38.732;-121.358;2022-10-31T01:52:30;101066.56;;;19.23;37.54
64967;BME280;51710;38.732;-121.358;2022-10-31T01:55:08;101079.41;;;19.08;38.09
64967;BME280;51710;38.732;-121.358;2022-10-31T01:57:37;101071.06;;;18.96;38.42
64967;BME280;51710;38.732;-121.358;2022-10-31T02:00:08;101062.75;;;18.91;38.56
64967;BME280;51710;38.732;-121.358;2022-10-31T02:02:35;101068.75;;;18.87;38.47
64967;BME280;51710;38.732;-121.358;2022-10-31T02:05:06;101069.94;;;18.78;38.72
64967;BME280;51710;38.732;-121.358;2022-10-31T02:10:27;101066.06;;;18.46;39.22
64967;BME280;51710;38.732;-121.358;2022-10-31T02:12:57;101067.47;;;18.36;39.61
64967;BME280;51710;38.732;-121.358;2022-10-31T02:15:24;101068.03;;;18.31;39.72
64967;BME280;51710;38.732;-121.358;2022-10-31T02:17:51;101068.88;;;18.32;39.91
64967;BME280;51710;38.732;-121.358;2022-10-31T02:20:19;101072.84;;;18.36;40.01
64967;BME280;51710;38.732;-121.358;2022-10-31T02:29:00;101073.34;;;18.46;40.20
64967;BME280;51710;38.732;-121.358;2022-10-31T02:31:44;101080.94;;;18.36;40.15
64967;BME280;51710;38.732;-121.358;2022-10-31T02:34:26;101084.22;;;18.31;40.57
64967;BME280;51710;38.732;-121.358;2022-10-31T02:39:49;101084.31;;;18.17;40.91
64967;BME280;51710;38.732;-121.358;2022-10-31T02:42:32;101093.22;;;18.11;41.36
64967;BME280;51710;38.732;-121.358;2022-10-31T02:47:46;101100.59;;;17.95;41.56
64967;BME280;51710;38.732;-121.358;2022-10-31T02:50:28;101089.28;;;17.85;41.61
64967;BME280;51710;38.732;-121.358;2022-10-31T02:52:55;101095.44;;;17.73;41.89
64967;BME280;51710;38.732;-121.358;2022-10-31T02:57:54;101109.16;;;17.57;42.50
64967;BME280;51710;38.732;-121.358;2022-10-31T03:00:23;101108.06;;;17.51;42.55
64967;BME280;51710;38.732;-121.358;2022-10-31T03:10:58;101098.63;;;17.05;43.12
64967;BME280;51710;38.732;-121.358;2022-10-31T03:13:45;101104.72;;;16.93;43.61
64967;BME280;51710;38.732;-121.358;2022-10-31T03:16:39;101106.69;;;16.84;43.95
64967;BME280;51710;38.732;-121.358;2022-10-31T03:19:09;101090.81;;;16.74;43.91
64967;BME280;51710;38.732;-121.358;2022-10-31T03:21:39;101096.13;;;16.68;44.16
64967;BME280;51710;38.732;-121.358;2022-10-31T03:24:09;101098.16;;;16.66;44.17
64967;BME280;51710;38.732;-121.358;2022-10-31T03:26:41;101099.16;;;16.65;44.22
64967;BME280;51710;38.732;-121.358;2022-10-31T03:29:11;101104.84;;;16.70;44.41
64967;BME280;51710;38.732;-121.358;2022-10-31T03:31:47;101104.06;;;16.76;44.16
64967;BME280;51710;38.732;-121.358;2022-10-31T03:34:17;101104.16;;;16.82;44.18
64967;BME280;51710;38.732;-121.358;2022-10-31T03:36:47;101102.09;;;16.84;44.26
64967;BME280;51710;38.732;-121.358;2022-10-31T03:39:18;101102.94;;;16.85;44.00
64967;BME280;51710;38.732;-121.358;2022-10-31T03:41:50;101098.31;;;16.79;44.21
64967;BME280;51710;38.732;-121.358;2022-10-31T03:44:21;101099.81;;;16.67;44.89
64967;BME280;51710;38.732;-121.358;2022-10-31T03:46:48;101092.78;;;16.51;44.99
64967;BME280;51710;38.732;-121.358;2022-10-31T03:49:15;101092.41;;;16.40;44.94
64967;BME280;51710;38.732;-121.358;2022-10-31T03:52:02;101094.81;;;16.35;45.03
64967;BME280;51710;38.732;-121.358;2022-10-31T03:54:44;101092.78;;;16.37;45.15
64967;BME280;51710;38.732;-121.358;2022-10-31T03:57:16;101091.84;;;16.30;45.24
64967;BME280;51710;38.732;-121.358;2022-10-31T03:59:47;101092.09;;;16.20;45.78
64967;BME280;51710;38.732;-121.358;2022-10-31T04:02:20;101094.44;;;16.09;45.71
64967;BME280;51710;38.732;-121.358;2022-10-31T04:04:49;101099.56;;;15.96;46.04
64967;BME280;51710;38.732;-121.358;2022-10-31T04:07:18;101095.00;;;15.82;46.41
64967;BME280;51710;38.732;-121.358;2022-10-31T04:09:47;101087.22;;;15.72;46.68
64967;BME280;51710;38.732;-121.358;2022-10-31T04:12:16;101093.13;;;15.67;46.65
64967;BME280;51710;38.732;-121.358;2022-10-31T04:14:45;101091.66;;;15.65;46.70
64967;BME280;51710;38.732;-121.358;2022-10-31T04:17:15;101099.03;;;15.63;46.97
64967;BME280;51710;38.732;-121.358;2022-10-31T04:19:42;101101.91;;;15.61;47.22
64967;BME280;51710;38.732;-121.358;2022-10-31T04:22:09;101107.66;;;15.58;47.29
64967;BME280;51710;38.732;-121.358;2022-10-31T04:24:37;101107.00;;;15.56;47.28
64967;BME280;51710;38.732;-121.358;2022-10-31T04:27:05;101109.31;;;15.59;47.36
64967;BME280;51710;38.732;-121.358;2022-10-31T04:29:31;101109.59;;;15.64;47.25
64967;BME280;51710;38.732;-121.358;2022-10-31T04:31:58;101106.19;;;15.70;47.17
64967;BME280;51710;38.732;-121.358;2022-10-31T04:34:24;101112.84;;;15.74;47.15
64967;BME280;51710;38.732;-121.358;2022-10-31T04:36:51;101104.47;;;15.77;47.08
64967;BME280;51710;38.732;-121.358;2022-10-31T04:39:17;101115.13;;;15.86;46.99
64967;BME280;51710;38.732;-121.358;2022-10-31T04:41:43;101118.47;;;15.88;46.89
64967;BME280;51710;38.732;-121.358;2022-10-31T04:44:10;101118.09;;;15.91;47.17
64967;BME280;51710;38.732;-121.358;2022-10-31T04:46:36;101115.69;;;15.96;47.05
64967;BME280;51710;38.732;-121.358;2022-10-31T04:49:02;101112.00;;;15.97;46.76
64967;BME280;51710;38.732;-121.358;2022-10-31T04:51:29;101116.72;;;15.95;47.01
64967;BME280;51710;38.732;-121.358;2022-10-31T04:53:55;101124.78;;;15.95;47.22
64967;BME280;51710;38.732;-121.358;2022-10-31T04:56:22;101124.41;;;15.98;46.96
64967;BME280;51710;38.732;-121.358;2022-10-31T04:58:48;101127.38;;;16.03;47.20
64967;BME280;51710;38.732;-121.358;2022-10-31T05:01:14;101127.38;;;16.03;47.19
64967;BME280;51710;38.732;-121.358;2022-10-31T05:03:41;101133.50;;;15.97;47.17
64967;BME280;51710;38.732;-121.358;2022-10-31T05:06:08;101123.84;;;15.88;47.26
64967;BME280;51710;38.732;-121.358;2022-10-31T05:08:34;101125.75;;;15.79;47.55
64967;BME280;51710;38.732;-121.358;2022-10-31T05:11:02;101128.34;;;15.72;47.88
64967;BME280;51710;38.732;-121.358;2022-10-31T05:13:29;101128.88;;;15.68;47.65
64967;BME280;51710;38.732;-121.358;2022-10-31T05:15:56;101131.06;;;15.64;47.86
64967;BME280;51710;38.732;-121.358;2022-10-31T05:18:22;101132.44;;;15.60;47.77
64967;BME280;51710;38.732;-121.358;2022-10-31T05:20:49;101128.28;;;15.58;47.91
64967;BME280;51710;38.732;-121.358;2022-10-31T05:23:15;101124.75;;;15.57;48.13
64967;BME280;51710;38.732;-121.358;2022-10-31T05:25:41;101125.78;;;15.56;48.27
64967;BME280;51710;38.732;-121.358;2022-10-31T05:28:08;101138.00;;;15.59;48.43
64967;BME280;51710;38.732;-121.358;2022-10-31T05:30:34;101140.81;;;15.65;48.21
64967;BME280;51710;38.732;-121.358;2022-10-31T05:33:01;101134.72;;;15.71;48.05
64967;BME280;51710;38.732;-121.358;2022-10-31T05:35:30;101142.69;;;15.79;48.31
64967;BME280;51710;38.732;-121.358;2022-10-31T05:37:58;101139.47;;;15.84;47.93
64967;BME280;51710;38.732;-121.358;2022-10-31T05:40:25;101139.78;;;15.89;47.84
64967;BME280;51710;38.732;-121.358;2022-10-31T05:42:53;101142.47;;;15.89;47.75
64967;BME280;51710;38.732;-121.358;2022-10-31T05:45:21;101150.69;;;15.88;47.88
64967;BME280;51710;38.732;-121.358;2022-10-31T05:47:55;101148.19;;;15.86;47.80
64967;BME280;51710;38.732;-121.358;2022-10-31T05:50:22;101150.69;;;15.88;47.49
64967;BME280;51710;38.732;-121.358;2022-10-31T05:52:59;101153.28;;;15.81;47.25
64967;BME280;51710;38.732;-121.358;2022-10-31T05:55:26;101149.28;;;15.77;47.47
64967;BME280;51710;38.732;-121.358;2022-10-31T05:57:53;101143.72;;;15.78;47.60
64967;BME280;51710;38.732;-121.358;2022-10-31T06:00:21;101146.03;;;15.82;47.47
64967;BME280;51710;38.732;-121.358;2022-10-31T06:02:48;101150.22;;;15.84;47.26
64967;BME280;51710;38.732;-121.358;2022-10-31T06:05:14;101148.19;;;15.86;47.36
64967;BME280;51710;38.732;-121.358;2022-10-31T06:07:42;101153.00;;;15.91;47.44
64967;BME280;51710;38.732;-121.358;2022-10-31T06:10:09;101166.06;;;15.94;47.35
64967;BME280;51710;38.732;-121.358;2022-10-31T06:12:36;101156.84;;;15.96;47.23
64967;BME280;51710;38.732;-121.358;2022-10-31T06:15:08;101156.66;;;15.98;47.06
64967;BME280;51710;38.732;-121.358;2022-10-31T06:17:35;101149.16;;;15.93;47.24
64967;BME280;51710;38.732;-121.358;2022-10-31T06:20:02;101149.75;;;15.81;47.49
64967;BME280;51710;38.732;-121.358;2022-10-31T06:22:28;101154.06;;;15.67;47.32
64967;BME280;51710;38.732;-121.358;2022-10-31T06:24:55;101148.91;;;15.57;47.49
64967;BME280;51710;38.732;-121.358;2022-10-31T06:27:21;101146.31;;;15.49;47.96
64967;BME280;51710;38.732;-121.358;2022-10-31T06:29:48;101145.34;;;15.42;47.94
64967;BME280;51710;38.732;-121.358;2022-10-31T06:32:15;101146.38;;;15.33;48.01
64967;BME280;51710;38.732;-121.358;2022-10-31T06:34:42;101140.03;;;15.26;48.17
64967;BME280;51710;38.732;-121.358;2022-10-31T06:37:10;101143.28;;;15.22;48.36
64967;BME280;51710;38.732;-121.358;2022-10-31T06:39:37;101148.97;;;15.19;48.21
64967;BME280;51710;38.732;-121.358;2022-10-31T06:42:04;101148.16;;;15.18;48.45
64967;BME280;51710;38.732;-121.358;2022-10-31T06:44:31;101154.81;;;15.22;48.35
64967;BME280;51710;38.732;-121.358;2022-10-31T06:46:57;101152.78;;;15.24;48.34
64967;BME280;51710;38.732;-121.358;2022-10-31T06:49:24;101151.25;;;15.30;48.21
64967;BME280;51710;38.732;-121.358;2022-10-31T06:51:50;101160.44;;;15.35;48.02
64967;BME280;51710;38.732;-121.358;2022-10-31T06:54:17;101166.16;;;15.40;48.11
64967;BME280;51710;38.732;-121.358;2022-10-31T06:56:46;101171.81;;;15.45;48.27
64967;BME280;51710;38.732;-121.358;2022-10-31T06:59:15;101158.88;;;15.49;48.04
64967;BME280;51710;38.732;-121.358;2022-10-31T07:01:42;101170.09;;;15.52;48.16
64967;BME280;51710;38.732;-121.358;2022-10-31T07:04:11;101169.91;;;15.54;47.79
64967;BME280;51710;38.732;-121.358;2022-10-31T07:06:38;101163.38;;;15.56;47.70
64967;BME280;51710;38.732;-121.358;2022-10-31T07:09:04;101164.72;;;15.52;47.97
64967;BME280;51710;38.732;-121.358;2022-10-31T07:11:31;101156.41;;;15.39;48.04
64967;BME280;51710;38.732;-121.358;2022-10-31T07:13:57;101161.31;;;15.28;47.96
64967;BME280;51710;38.732;-121.358;2022-10-31T07:16:24;101165.91;;;15.19;48.27
64967;BME280;51710;38.732;-121.358;2022-10-31T07:18:53;101163.97;;;15.05;48.60
64967;BME280;51710;38.732;-121.358;2022-10-31T07:21:20;101156.16;;;14.88;48.42
64967;BME280;51710;38.732;-121.358;2022-10-31T07:23:49;101169.81;;;14.70;48.99
64967;BME280;51710;38.732;-121.358;2022-10-31T07:26:16;101168.19;;;14.53;48.97
64967;BME280;51710;38.732;-121.358;2022-10-31T07:28:42;101170.25;;;14.43;49.30
64967;BME280;51710;38.732;-121.358;2022-10-31T07:31:09;101156.69;;;14.36;49.54
64967;BME280;51710;38.732;-121.358;2022-10-31T07:33:35;101163.88;;;14.36;49.74
64967;BME280;51710;38.732;-121.358;2022-10-31T07:36:02;101171.25;;;14.34;49.98
64967;BME280;51710;38.732;-121.358;2022-10-31T07:38:28;101162.19;;;14.35;49.95
64967;BME280;51710;38.732;-121.358;2022-10-31T07:40:54;101155.00;;;14.35;49.84
64967;BME280;51710;38.732;-121.358;2022-10-31T07:43:21;101161.69;;;14.39;50.10
64967;BME280;51710;38.732;-121.358;2022-10-31T07:45:54;101168.22;;;14.45;49.99
64967;BME280;51710;38.732;-121.358;2022-10-31T07:48:20;101162.16;;;14.51;49.90
64967;BME280;51710;38.732;-121.358;2022-10-31T07:50:47;101167.53;;;14.59;49.74
64967;BME280;51710;38.732;-121.358;2022-10-31T07:53:14;101164.81;;;14.67;49.49
64967;BME280;51710;38.732;-121.358;2022-10-31T07:55:41;101163.78;;;14.76;49.62
64967;BME280;51710;38.732;-121.358;2022-10-31T07:58:11;101160.38;;;14.82;49.09
64967;BME280;51710;38.732;-121.358;2022-10-31T08:00:38;101157.00;;;14.88;48.90
64967;BME280;51710;38.732;-121.358;2022-10-31T08:03:10;101158.97;;;14.94;49.05
64967;BME280;51710;38.732;-121.358;2022-10-31T08:05:38;101163.84;;;14.99;49.07
64967;BME280;51710;38.732;-121.358;2022-10-31T08:08:07;101165.97;;;15.03;49.14
64967;BME280;51710;38.732;-121.358;2022-10-31T08:10:34;101165.66;;;15.06;48.82
64967;BME280;51710;38.732;-121.358;2022-10-31T08:13:03;101165.00;;;15.04;49.04
64967;BME280;51710;38.732;-121.358;2022-10-31T08:15:30;101155.91;;;15.05;48.77
64967;BME280;51710;38.732;-121.358;2022-10-31T08:17:56;101152.25;;;15.06;48.82
64967;BME280;51710;38.732;-121.358;2022-10-31T08:20:23;101159.94;;;15.09;48.63
64967;BME280;51710;38.732;-121.358;2022-10-31T08:22:57;101163.28;;;15.11;48.92
64967;BME280;51710;38.732;-121.358;2022-10-31T08:25:25;101169.47;;;15.12;48.67
64967;BME280;51710;38.732;-121.358;2022-10-31T08:27:53;101166.28;;;15.08;48.57
64967;BME280;51710;38.732;-121.358;2022-10-31T08:30:21;101167.69;;;15.04;48.55
64967;BME280;51710;38.732;-121.358;2022-10-31T08:35:25;101158.81;;;14.57;49.04
64967;BME280;51710;38.732;-121.358;2022-10-31T08:37:55;101161.69;;;14.31;49.55
64967;BME280;51710;38.732;-121.358;2022-10-31T08:40:23;101158.72;;;14.10;50.27
64967;BME280;51710;38.732;-121.358;2022-10-31T08:43:01;101162.72;;;13.98;50.50
64967;BME280;51710;38.732;-121.358;2022-10-31T08:45:28;101151.03;;;13.91;50.94
64967;BME280;51710;38.732;-121.358;2022-10-31T08:47:59;101146.69;;;13.82;51.33
64967;BME280;51710;38.732;-121.358;2022-10-31T08:50:27;101142.31;;;13.73;51.79
64967;BME280;51710;38.732;-121.358;2022-10-31T08:53:03;101144.66;;;13.68;51.80
64967;BME280;51710;38.732;-121.358;2022-10-31T08:55:30;101129.13;;;13.72;52.03
64967;BME280;51710;38.732;-121.358;2022-10-31T08:57:57;101129.13;;;13.72;51.63
64967;BME280;51710;38.732;-121.358;2022-10-31T09:00:24;101114.38;;;13.76;51.85
64967;BME280;51710;38.732;-121.358;2022-10-31T09:02:57;101113.38;;;13.85;52.16
64967;BME280;51710;38.732;-121.358;2022-10-31T09:05:24;101108.84;;;13.93;52.07
64967;BME280;51710;38.732;-121.358;2022-10-31T09:07:51;101107.31;;;13.99;52.08
64967;BME280;51710;38.732;-121.358;2022-10-31T09:10:21;101098.63;;;14.05;52.11
64967;BME280;51710;38.732;-121.358;2022-10-31T09:12:47;101102.47;;;14.10;52.05
64967;BME280;51710;38.732;-121.358;2022-10-31T09:15:20;101100.91;;;14.16;52.06
64967;BME280;51710;38.732;-121.358;2022-10-31T09:17:47;101093.25;;;14.21;52.10
64967;BME280;51710;38.732;-121.358;2022-10-31T09:20:14;101087.22;;;14.27;51.98
64967;BME280;51710;38.732;-121.358;2022-10-31T09:22:40;101089.22;;;14.33;52.11
64967;BME280;51710;38.732;-121.358;2022-10-31T09:25:07;101079.81;;;14.37;52.08
64967;BME280;51710;38.732;-121.358;2022-10-31T09:27:34;101084.66;;;14.41;51.61
64967;BME280;51710;38.732;-121.358;2022-10-31T09:30:03;101076.94;;;14.46;51.69
64967;BME280;51710;38.732;-121.358;2022-10-31T09:32:30;101070.22;;;14.50;51.50
64967;BME280;51710;38.732;-121.358;2022-10-31T09:34:56;101066.16;;;14.54;51.52
64967;BME280;51710;38.732;-121.358;2022-10-31T09:37:22;101075.53;;;14.58;51.18
64967;BME280;51710;38.732;-121.358;2022-10-31T09:39:49;101078.53;;;14.63;50.97
64967;BME280;51710;38.732;-121.358;2022-10-31T09:50:19;101061.88;;;14.76;50.80
64967;BME280;51710;38.732;-121.358;2022-10-31T09:53:19;101074.25;;;14.77;50.58
64967;BME280;51710;38.732;-121.358;2022-10-31T09:55:44;101076.13;;;14.77;50.52
64967;BME280;51710;38.732;-121.358;2022-10-31T09:58:23;101062.88;;;14.75;50.34
64967;BME280;51710;38.732;-121.358;2022-10-31T10:00:51;101066.28;;;14.69;50.43
64967;BME280;51710;38.732;-121.358;2022-10-31T10:03:42;101063.97;;;14.58;50.75
64967;BME280;51710;38.732;-121.358;2022-10-31T10:06:17;101054.66;;;14.46;50.79
64967;BME280;51710;38.732;-121.358;2022-10-31T10:08:45;101057.03;;;14.41;50.90
64967;BME280;51710;38.732;-121.358;2022-10-31T10:30:54;101050.25;;;14.53;50.30
64967;BME280;51710;38.732;-121.358;2022-10-31T10:33:35;101046.75;;;14.52;50.62
64967;BME280;51710;38.732;-121.358;2022-10-31T10:39:21;101059.03;;;14.39;50.25
64967;BME280;51710;38.732;-121.358;2022-10-31T10:41:50;101056.28;;;14.00;50.89
64967;BME280;51710;38.732;-121.358;2022-10-31T10:44:40;101066.88;;;13.86;51.41
64967;BME280;51710;38.732;-121.358;2022-10-31T10:47:36;101070.19;;;13.80;51.78
64967;BME280;51710;38.732;-121.358;2022-10-31T10:50:18;101076.91;;;13.68;52.20
64967;BME280;51710;38.732;-121.358;2022-10-31T10:58:19;101064.53;;;13.42;52.73
64967;BME280;51710;38.732;-121.358;2022-10-31T11:00:46;101071.06;;;13.40;52.94
64967;BME280;51710;38.732;-121.358;2022-10-31T11:03:14;101063.88;;;13.40;52.67
64967;BME280;51710;38.732;-121.358;2022-10-31T11:05:58;101052.66;;;13.45;52.83
64967;BME280;51710;38.732;-121.358;2022-10-31T11:08:32;101058.19;;;13.51;53.11
64967;BME280;51710;38.732;-121.358;2022-10-31T11:11:09;101057.88;;;13.54;53.20
64967;BME280;51710;38.732;-121.358;2022-10-31T11:13:41;101060.03;;;13.59;52.51
64967;BME280;51710;38.732;-121.358;2022-10-31T11:16:14;101058.53;;;13.65;52.71
64967;BME280;51710;38.732;-121.358;2022-10-31T11:18:46;101040.47;;;13.67;52.63
64967;BME280;51710;38.732;-121.358;2022-10-31T11:21:27;101044.97;;;13.66;52.31
64967;BME280;51710;38.732;-121.358;2022-10-31T11:24:24;101045.81;;;13.67;52.73
64967;BME280;51710;38.732;-121.358;2022-10-31T11:27:13;101043.78;;;13.61;52.28
64967;BME280;51710;38.732;-121.358;2022-10-31T11:29:41;101048.16;;;13.53;52.88
64967;BME280;51710;38.732;-121.358;2022-10-31T11:32:18;101047.50;;;13.43;52.79
64967;BME280;51710;38.732;-121.358;2022-10-31T11:34:48;101058.50;;;13.32;53.14
64967;BME280;51710;38.732;-121.358;2022-10-31T11:37:16;101055.69;;;13.26;53.12
64967;BME280;51710;38.732;-121.358;2022-10-31T11:39:48;101060.34;;;13.24;53.52
64967;BME280;51710;38.732;-121.358;2022-10-31T11:42:40;101050.50;;;13.24;53.36
64967;BME280;51710;38.732;-121.358;2022-10-31T11:45:27;101056.53;;;13.26;53.43
64967;BME280;51710;38.732;-121.358;2022-10-31T11:47:56;101065.22;;;13.28;53.36
64967;BME280;51710;38.732;-121.358;2022-10-31T11:50:25;101063.38;;;13.29;53.40
64967;BME280;51710;38.732;-121.358;2022-10-31T11:52:53;101065.34;;;13.27;53.31
64967;BME280;51710;38.732;-121.358;2022-10-31T11:55:35;101063.03;;;13.24;53.45
64967;BME280;51710;38.732;-121.358;2022-10-31T11:58:03;101051.81;;;13.12;53.84
64967;BME280;51710;38.732;-121.358;2022-10-31T12:00:33;101058.34;;;13.02;53.85
64967;BME280;51710;38.732;-121.358;2022-10-31T12:03:13;101056.59;;;12.93;54.23
64967;BME280;51710;38.732;-121.358;2022-10-31T12:05:44;101056.72;;;12.83;54.41
64967;BME280;51710;38.732;-121.358;2022-10-31T12:08:12;101053.72;;;12.70;54.36
64967;BME280;51710;38.732;-121.358;2022-10-31T12:16:36;101044.16;;;12.52;55.55
64967;BME280;51710;38.732;-121.358;2022-10-31T12:21:56;101051.56;;;12.32;56.20
64967;BME280;51710;38.732;-121.358;2022-10-31T12:25:01;101052.84;;;12.20;56.42
64967;BME280;51710;38.732;-121.358;2022-10-31T12:28:16;101045.78;;;12.11;56.83
64967;BME280;51710;38.732;-121.358;2022-10-31T12:34:00;101051.34;;;11.92;57.69
64967;BME280;51710;38.732;-121.358;2022-10-31T12:39:23;101050.28;;;11.77;58.36
64967;BME280;51710;38.732;-121.358;2022-10-31T12:45:00;101050.56;;;11.56;58.62
64967;BME280;51710;38.732;-121.358;2022-10-31T12:47:52;101047.59;;;11.59;58.58
64967;BME280;51710;38.732;-121.358;2022-10-31T12:50:26;101047.00;;;11.65;58.63
64967;BME280;51710;38.732;-121.358;2022-10-31T12:53:22;101053.22;;;11.74;58.09
64967;BME280;51710;38.732;-121.358;2022-10-31T12:56:03;101040.63;;;11.84;58.39
64967;BME280;51710;38.732;-121.358;2022-10-31T12:58:47;101044.97;;;11.85;58.49
64967;BME280;51710;38.732;-121.358;2022-10-31T13:01:33;101056.63;;;11.84;58.46
64967;BME280;51710;38.732;-121.358;2022-10-31T13:04:19;101045.13;;;11.83;58.45
64967;BME280;51710;38.732;-121.358;2022-10-31T13:06:50;101045.94;;;11.84;58.04
64967;BME280;51710;38.732;-121.358;2022-10-31T13:09:25;101049.31;;;11.86;58.57
64967;BME280;51710;38.732;-121.358;2022-10-31T13:12:02;101051.78;;;11.79;58.67
64967;BME280;51710;38.732;-121.358;2022-10-31T13:14:43;101052.25;;;11.75;58.77
64967;BME280;51710;38.732;-121.358;2022-10-31T13:17:34;101049.75;;;11.73;58.39
64967;BME280;51710;38.732;-121.358;2022-10-31T13:22:39;101058.63;;;11.82;58.77
64967;BME280;51710;38.732;-121.358;2022-10-31T13:27:57;101061.03;;;11.93;58.59
64967;BME280;51710;38.732;-121.358;2022-10-31T13:30:31;101055.41;;;11.96;58.18
64967;BME280;51710;38.732;-121.358;2022-10-31T13:33:25;101062.06;;;12.00;58.06
64967;BME280;51710;38.732;-121.358;2022-10-31T13:36:07;101073.59;;;12.00;58.01
64967;BME280;51710;38.732;-121.358;2022-10-31T13:38:54;101068.25;;;12.00;58.20
64967;BME280;51710;38.732;-121.358;2022-10-31T13:41:47;101066.78;;;12.06;57.90
64967;BME280;51710;38.732;-121.358;2022-10-31T13:44:22;101070.44;;;12.05;58.11
64967;BME280;51710;38.732;-121.358;2022-10-31T13:46:57;101076.09;;;12.02;57.94
64967;BME280;51710;38.732;-121.358;2022-10-31T13:49:43;101069.56;;;11.96;58.71
64967;BME280;51710;38.732;-121.358;2022-10-31T13:54:39;101077.69;;;11.87;57.79
64967;BME280;51710;38.732;-121.358;2022-10-31T13:57:43;101077.34;;;11.90;58.38
64967;BME280;51710;38.732;-121.358;2022-10-31T14:02:48;101067.94;;;11.78;59.30
64967;BME280;51710;38.732;-121.358;2022-10-31T14:05:24;101050.94;;;11.61;59.11
64967;BME280;51710;38.732;-121.358;2022-10-31T14:07:53;101047.38;;;11.53;59.27
64967;BME280;51710;38.732;-121.358;2022-10-31T14:10:27;101043.66;;;11.46;59.31
64967;BME280;51710;38.732;-121.358;2022-10-31T14:15:31;101047.28;;;11.37;59.76
64967;BME280;51710;38.732;-121.358;2022-10-31T14:18:01;101048.63;;;11.41;59.65